Linhai, China
Current Conditions -  °F | °C
As of 8:00 PM on Friday 19 Dec 2014 (Local Time) from ZSNB Reporting Station
Scattered Clouds Scattered Clouds  
Wind Chill: 50°   Ceiling: Unl
Heat Index: 50°   Visibility: 4mi
Dew Point: 32°   Wind: 9mph
Humidity: 50%   Direction: 320°NW
Pressure: 30.27"   Gusts: NA
Location:  28.84°N, 121.11°E
Report Text: ZSNB 191200Z 32004MPS 6000 SCT033 10/M00 Q1025 NOSIG
Loading
Personal Weather Stations






























Interactive Weather Map New forecast layout! Learn more

10-Day Weather Forecast

Advertisements
Track Severe Weather on mobile